Time;durP1;ratioP1;P1;durP2;ratioP2;P2;SDS_P1;SDS_P2;PMS_P1;PMS_P2;Temp;Humidity;BMP_temperature;BMP_pressure;BME280_temperature;BME280_humidity;BME280_pressure;Samples;Min_cycle;Max_cycle;Signal;HPM_P1;HPM_P2
2024/02/02 00:01:44;;;;;;;110.40;55.53;;;;;;;;;;5054704;28;20106;-50
2024/02/02 00:04:12;;;;;;;110.35;59.60;;;;;;;;;;5071757;28;20032;-52
2024/02/02 00:06:38;;;;;;;106.93;59.22;;;;;;;;;;5071711;28;20495;-54
2024/02/02 00:09:06;;;;;;;104.20;59.43;;;;;;;;;;5071694;28;20029;-52
2024/02/02 00:11:33;;;;;;;97.03;57.58;;;;;;;;;;5053790;28;20359;-52
2024/02/02 00:14:00;;;;;;;98.78;56.22;;;;;;;;;;5071590;28;20029;-50
2024/02/02 00:16:26;;;;;;;105.47;58.13;;;;;;;;;;5071446;28;20103;-51
2024/02/02 00:18:52;;;;;;;116.25;64.90;;;;;;;;;;5070506;28;20119;-53
2024/02/02 00:21:18;;;;;;;115.13;60.63;;;;;;;;;;5053618;28;20137;-51
2024/02/02 00:23:44;;;;;;;109.82;61.88;;;;;;;;;;5053711;28;20029;-50
2024/02/02 00:26:11;;;;;;;120.60;62.97;;;;;;;;;;5071229;28;20044;-52
2024/02/02 00:28:37;;;;;;;121.93;63.05;;;;;;;;;;5071701;28;20032;-50
2024/02/02 00:31:04;;;;;;;115.23;65.57;;;;;;;;;;5071270;28;20036;-52
2024/02/02 00:33:31;;;;;;;123.07;68.13;;;;;;;;;;5053569;28;20255;-51
2024/02/02 00:35:57;;;;;;;;;;;;;;;;;;5053801;28;20340;-51
2024/02/02 00:38:23;;;;;;;98.25;55.72;;;;;;;;;;5053629;28;19909;-51
2024/02/02 00:40:49;;;;;;;113.00;59.65;;;;;;;;;;5071250;28;20486;-50
2024/02/02 00:43:16;;;;;;;109.60;61.87;;;;;;;;;;5071124;28;20038;-50
2024/02/02 00:45:42;;;;;;;131.10;68.72;;;;;;;;;;5085867;28;20025;-51
2024/02/02 00:48:08;;;;;;;120.95;66.20;;;;;;;;;;5053023;28;20039;-50
2024/02/02 00:50:34;;;;;;;116.53;62.27;;;;;;;;;;5070232;28;20111;-51
2024/02/02 00:53:00;;;;;;;140.75;70.97;;;;;;;;;;5071251;28;20063;-52
2024/02/02 00:55:26;;;;;;;112.82;61.67;;;;;;;;;;5052753;28;20024;-51
2024/02/02 00:57:53;;;;;;;126.80;66.93;;;;;;;;;;5071480;28;20485;-51
2024/02/02 01:00:19;;;;;;;133.90;70.63;;;;;;;;;;5071045;28;20024;-51
2024/02/02 01:02:45;;;;;;;115.83;64.77;;;;;;;;;;5070522;28;20035;-51
2024/02/02 01:05:13;;;;;;;111.13;62.85;;;;;;;;;;5052945;28;20083;-51
2024/02/02 01:07:39;;;;;;;116.53;64.90;;;;;;;;;;5071085;28;20064;-51
2024/02/02 01:10:06;;;;;;;121.88;66.00;;;;;;;;;;5052927;28;20031;-49
2024/02/02 01:12:33;;;;;;;125.75;66.55;;;;;;;;;;5070810;28;20119;-51
2024/02/02 01:15:00;;;;;;;110.03;60.42;;;;;;;;;;5052911;28;20039;-52
2024/02/02 01:17:26;;;;;;;112.45;60.72;;;;;;;;;;5070940;28;20030;-51
2024/02/02 01:19:52;;;;;;;128.90;70.00;;;;;;;;;;5070980;28;20028;-52
2024/02/02 01:22:18;;;;;;;126.85;67.05;;;;;;;;;;5071011;28;20078;-51
2024/02/02 01:24:44;;;;;;;108.77;60.43;;;;;;;;;;5070750;28;20044;-50
2024/02/02 01:27:10;;;;;;;99.10;59.25;;;;;;;;;;5052955;28;20475;-51
2024/02/02 01:29:37;;;;;;;111.15;62.45;;;;;;;;;;5070776;28;20086;-50
2024/02/02 01:32:03;;;;;;;109.10;60.45;;;;;;;;;;5070711;28;20079;-50
2024/02/02 01:34:29;;;;;;;108.00;59.07;;;;;;;;;;5053296;28;20415;-50
2024/02/02 01:36:55;;;;;;;123.60;65.65;;;;;;;;;;5074491;28;20825;-51
2024/02/02 01:39:21;;;;;;;112.90;62.10;;;;;;;;;;5074796;28;20028;-51
2024/02/02 01:41:47;;;;;;;116.20;63.53;;;;;;;;;;5074591;28;20107;-50
2024/02/02 01:44:14;;;;;;;124.70;63.42;;;;;;;;;;5074404;28;20383;-51
2024/02/02 01:46:40;;;;;;;112.37;62.17;;;;;;;;;;5074257;28;20486;-51
2024/02/02 01:49:06;;;;;;;107.17;57.53;;;;;;;;;;5074064;28;20072;-51
2024/02/02 01:51:32;;;;;;;104.93;57.25;;;;;;;;;;5056034;28;20040;-51
2024/02/02 01:53:58;;;;;;;116.30;62.13;;;;;;;;;;5056799;28;20047;-50
2024/02/02 01:56:25;;;;;;;123.55;67.03;;;;;;;;;;5074228;28;20442;-53
2024/02/02 01:58:51;;;;;;;107.30;59.90;;;;;;;;;;5056193;28;20483;-50
2024/02/02 02:01:17;;;;;;;115.40;62.17;;;;;;;;;;5074251;28;20116;-51
2024/02/02 02:03:44;;;;;;;111.43;61.97;;;;;;;;;;5074583;28;20028;-50
2024/02/02 02:06:10;;;;;;;113.60;59.95;;;;;;;;;;5073903;28;20024;-51
2024/02/02 02:08:36;;;;;;;110.57;58.20;;;;;;;;;;5056254;28;20078;-51
2024/02/02 02:11:03;;;;;;;107.27;57.57;;;;;;;;;;5073855;28;20012;-51
2024/02/02 02:13:30;;;;;;;103.53;58.42;;;;;;;;;;5055799;28;20130;-50
2024/02/02 02:15:56;;;;;;;109.40;59.80;;;;;;;;;;5073336;28;20450;-50
2024/02/02 02:18:22;;;;;;;100.80;58.23;;;;;;;;;;5073885;28;20360;-50
2024/02/02 02:20:50;;;;;;;115.40;60.28;;;;;;;;;;5073518;28;20629;-49
2024/02/02 02:23:16;;;;;;;110.50;60.33;;;;;;;;;;5073652;28;20399;-51
2024/02/02 02:25:43;;;;;;;102.22;56.67;;;;;;;;;;5073773;28;20029;-50
2024/02/02 02:28:09;;;;;;;107.18;56.47;;;;;;;;;;5073659;28;20025;-50
2024/02/02 02:30:36;;;;;;;106.23;58.37;;;;;;;;;;5073491;28;20051;-50
2024/02/02 02:33:02;;;;;;;102.22;56.25;;;;;;;;;;5055689;28;20059;-52
2024/02/02 02:35:28;;;;;;;96.40;54.53;;;;;;;;;;5073356;28;20071;-51
2024/02/02 02:37:54;;;;;;;92.13;53.85;;;;;;;;;;5055522;28;20676;-50
2024/02/02 02:40:20;;;;;;;95.05;56.05;;;;;;;;;;5073418;28;20026;-51
2024/02/02 02:42:47;;;;;;;106.70;56.53;;;;;;;;;;5073420;28;20296;-51
2024/02/02 02:45:13;;;;;;;95.50;55.78;;;;;;;;;;5072871;28;20067;-48
2024/02/02 02:47:39;;;;;;;95.38;54.67;;;;;;;;;;5054561;28;20074;-51
2024/02/02 02:50:06;;;;;;;98.30;58.10;;;;;;;;;;5059224;28;20060;-49
2024/02/02 02:52:32;;;;;;;101.88;55.83;;;;;;;;;;5073047;28;20020;-51
2024/02/02 02:54:58;;;;;;;95.13;53.73;;;;;;;;;;5055445;28;20117;-49
2024/02/02 02:57:24;;;;;;;90.80;52.03;;;;;;;;;;5073303;28;20259;-48
2024/02/02 02:59:51;;;;;;;88.38;52.45;;;;;;;;;;5072874;28;20040;-52
2024/02/02 03:02:18;;;;;;;92.57;52.90;;;;;;;;;;5073035;28;20024;-51
2024/02/02 03:04:44;;;;;;;90.75;52.28;;;;;;;;;;5073212;28;20563;-51
2024/02/02 03:07:11;;;;;;;97.13;52.78;;;;;;;;;;5071784;28;20032;-53
2024/02/02 03:09:37;;;;;;;99.28;54.70;;;;;;;;;;5053663;28;20028;-51
2024/02/02 03:12:03;;;;;;;96.37;54.57;;;;;;;;;;5054393;28;20031;-51
2024/02/02 03:14:30;;;;;;;99.57;53.85;;;;;;;;;;5073006;28;20255;-52
2024/02/02 03:16:56;;;;;;;92.95;53.10;;;;;;;;;;5054625;28;20075;-51
2024/02/02 03:19:23;;;;;;;97.25;55.25;;;;;;;;;;5055281;28;20033;-50
2024/02/02 03:21:49;;;;;;;86.28;53.38;;;;;;;;;;5072516;28;20033;-51
2024/02/02 03:24:15;;;;;;;91.50;52.08;;;;;;;;;;5072559;28;20070;-50
2024/02/02 03:26:42;;;;;;;98.30;52.97;;;;;;;;;;5082168;28;20207;-51
2024/02/02 03:29:08;;;;;;;88.25;53.60;;;;;;;;;;5072370;28;20036;-49
2024/02/02 03:31:34;;;;;;;97.10;54.05;;;;;;;;;;5054631;28;20518;-51
2024/02/02 03:34:00;;;;;;;86.78;52.08;;;;;;;;;;5072356;28;20044;-50
2024/02/02 03:36:27;;;;;;;97.53;55.13;;;;;;;;;;5071942;28;20526;-50
2024/02/02 03:38:53;;;;;;;97.18;53.88;;;;;;;;;;5054398;28;20048;-52
2024/02/02 03:41:21;;;;;;;115.68;63.92;;;;;;;;;;5072482;28;20036;-51
2024/02/02 03:43:49;;;;;;;110.65;60.60;;;;;;;;;;5054308;28;20116;-50
2024/02/02 03:46:15;;;;;;;106.45;56.22;;;;;;;;;;5071735;28;20036;-53
2024/02/02 03:48:41;;;;;;;104.25;58.85;;;;;;;;;;5071691;28;20029;-51
2024/02/02 03:51:10;;;;;;;111.90;62.28;;;;;;;;;;5071818;28;20021;-50
2024/02/02 03:53:36;;;;;;;107.50;58.58;;;;;;;;;;5071543;28;20020;-51
2024/02/02 03:56:02;;;;;;;117.82;64.55;;;;;;;;;;5071615;28;20082;-51
2024/02/02 03:58:29;;;;;;;159.65;66.75;;;;;;;;;;5071744;28;20362;-51
2024/02/02 04:00:56;;;;;;;258.97;71.83;;;;;;;;;;5072262;28;20035;-51
2024/02/02 04:03:22;;;;;;;;;;;;;;;;;;5071882;28;20048;-52
2024/02/02 04:05:48;;;;;;;214.13;72.35;;;;;;;;;;5071967;28;19974;-51
2024/02/02 04:08:14;;;;;;;232.43;73.03;;;;;;;;;;5071557;28;20464;-50
2024/02/02 04:10:40;;;;;;;258.47;75.87;;;;;;;;;;5071672;28;20036;-50
2024/02/02 04:13:07;;;;;;;293.83;76.47;;;;;;;;;;5071194;28;20032;-52
2024/02/02 04:15:33;;;;;;;201.63;71.93;;;;;;;;;;5071182;28;20031;-51
2024/02/02 04:17:59;;;;;;;295.03;91.87;;;;;;;;;;5054342;28;20395;-50
2024/02/02 04:20:25;;;;;;;149.00;72.18;;;;;;;;;;5071638;28;20028;-51
2024/02/02 04:22:51;;;;;;;134.63;70.07;;;;;;;;;;5071649;28;20024;-51
2024/02/02 04:25:18;;;;;;;140.95;71.22;;;;;;;;;;5071297;28;20048;-50
2024/02/02 04:27:44;;;;;;;121.72;66.50;;;;;;;;;;5053821;28;20097;-51
2024/02/02 04:30:10;;;;;;;128.10;68.37;;;;;;;;;;5071213;28;20453;-53
2024/02/02 04:32:37;;;;;;;121.07;64.15;;;;;;;;;;5053352;28;20021;-52
2024/02/02 04:35:03;;;;;;;142.73;67.70;;;;;;;;;;5053491;28;20395;-51
2024/02/02 04:37:29;;;;;;;145.98;66.18;;;;;;;;;;5053022;28;20033;-51
2024/02/02 04:39:55;;;;;;;223.73;73.78;;;;;;;;;;5071276;28;20060;-50
2024/02/02 04:42:21;;;;;;;177.53;72.67;;;;;;;;;;5071416;28;20082;-51
2024/02/02 04:44:48;;;;;;;162.63;72.50;;;;;;;;;;5053364;28;20054;-51
2024/02/02 04:47:14;;;;;;;201.80;76.23;;;;;;;;;;5052361;28;20039;-50
2024/02/02 04:49:40;;;;;;;267.57;79.10;;;;;;;;;;5071452;28;20107;-52
2024/02/02 04:52:06;;;;;;;234.67;73.43;;;;;;;;;;5071299;28;20466;-52
2024/02/02 04:54:32;;;;;;;284.53;82.63;;;;;;;;;;5070912;28;20510;-51
2024/02/02 04:56:59;;;;;;;270.33;80.63;;;;;;;;;;5053045;28;20029;-51
2024/02/02 04:59:25;;;;;;;334.83;87.07;;;;;;;;;;5070936;28;20033;-50
2024/02/02 05:01:52;;;;;;;282.07;79.67;;;;;;;;;;5071080;28;20071;-50
2024/02/02 05:04:18;;;;;;;317.02;81.28;;;;;;;;;;5071212;28;20107;-50
2024/02/02 05:06:44;;;;;;;336.25;82.88;;;;;;;;;;5071175;28;20036;-52
2024/02/02 05:09:10;;;;;;;253.70;79.83;;;;;;;;;;5071678;28;20094;-49
2024/02/02 05:11:36;;;;;;;249.25;80.53;;;;;;;;;;5057411;28;20024;-50
2024/02/02 05:14:03;;;;;;;371.87;87.50;;;;;;;;;;5082396;22;20052;-52
2024/02/02 05:16:29;;;;;;;417.67;95.95;;;;;;;;;;5053590;28;20394;-50
2024/02/02 05:18:55;;;;;;;297.13;90.10;;;;;;;;;;5055402;28;20028;-53
2024/02/02 05:21:21;;;;;;;304.10;84.68;;;;;;;;;;5055375;28;20021;-52
2024/02/02 05:23:47;;;;;;;249.98;81.20;;;;;;;;;;5075163;28;20025;-51
2024/02/02 05:26:13;;;;;;;125.45;51.95;;;;;;;;;;5075104;28;20106;-51
2024/02/02 05:28:40;;;;;;;358.05;87.57;;;;;;;;;;5075153;28;20116;-52
2024/02/02 05:31:06;;;;;;;398.92;89.40;;;;;;;;;;5075214;28;20021;-53
2024/02/02 05:33:32;;;;;;;271.60;83.78;;;;;;;;;;5074810;28;20028;-55
2024/02/02 05:35:59;;;;;;;242.32;78.88;;;;;;;;;;5074792;28;20074;-52
2024/02/02 05:38:25;;;;;;;360.38;88.95;;;;;;;;;;5075010;28;20116;-51
2024/02/02 05:40:51;;;;;;;324.90;86.43;;;;;;;;;;5075140;28;20428;-50
2024/02/02 05:43:17;;;;;;;271.77;81.47;;;;;;;;;;5075024;28;20048;-52
2024/02/02 05:45:43;;;;;;;258.27;79.20;;;;;;;;;;5074698;28;20078;-50
2024/02/02 05:48:10;;;;;;;238.87;78.70;;;;;;;;;;5074677;28;20030;-50
2024/02/02 05:50:36;;;;;;;272.40;83.73;;;;;;;;;;5074636;28;20032;-50
2024/02/02 05:53:02;;;;;;;199.23;76.57;;;;;;;;;;5074649;28;20081;-50
2024/02/02 05:55:28;;;;;;;217.65;72.13;;;;;;;;;;5074616;28;20398;-50
2024/02/02 05:57:54;;;;;;;236.70;75.67;;;;;;;;;;5056878;28;20021;-51
2024/02/02 06:00:20;;;;;;;228.55;73.05;;;;;;;;;;5074569;28;20027;-50
2024/02/02 06:02:47;;;;;;;159.67;65.40;;;;;;;;;;5074102;28;20117;-55
2024/02/02 06:05:13;;;;;;;230.98;74.32;;;;;;;;;;5074228;28;20025;-50
2024/02/02 06:07:40;;;;;;;172.63;69.20;;;;;;;;;;5056480;28;20032;-52
2024/02/02 06:10:06;;;;;;;188.60;67.77;;;;;;;;;;5074308;28;20094;-51
2024/02/02 06:12:36;;;;;;;179.75;66.22;;;;;;;;;;5074132;28;20052;-50
2024/02/02 06:15:03;;;;;;;154.05;65.88;;;;;;;;;;5074229;28;20028;-50
2024/02/02 06:17:29;;;;;;;132.77;62.63;;;;;;;;;;5074078;28;20025;-54
2024/02/02 06:19:55;;;;;;;122.25;62.03;;;;;;;;;;5073856;28;20046;-51
2024/02/02 06:22:21;;;;;;;141.27;67.83;;;;;;;;;;5074059;28;20454;-51
2024/02/02 06:24:48;;;;;;;162.20;71.82;;;;;;;;;;5074090;28;20020;-48
2024/02/02 06:27:15;;;;;;;129.80;63.45;;;;;;;;;;5073957;28;20402;-48
2024/02/02 06:29:41;;;;;;;138.05;62.97;;;;;;;;;;5073971;28;20032;-51
2024/02/02 06:32:08;;;;;;;115.95;60.55;;;;;;;;;;5073880;28;20020;-49
2024/02/02 06:34:34;;;;;;;128.02;62.88;;;;;;;;;;5074351;28;20067;-52
2024/02/02 06:37:00;;;;;;;122.40;62.53;;;;;;;;;;5073820;28;20052;-47
2024/02/02 06:39:26;;;;;;;133.57;67.68;;;;;;;;;;5073928;28;20027;-47
2024/02/02 06:41:52;;;;;;;113.13;63.10;;;;;;;;;;5073845;28;20024;-53
2024/02/02 06:44:18;;;;;;;102.47;57.40;;;;;;;;;;5072337;28;20024;-49
2024/02/02 06:46:45;;;;;;;102.73;59.03;;;;;;;;;;5073620;28;20376;-53
2024/02/02 06:49:11;;;;;;;100.78;55.85;;;;;;;;;;5073051;28;20546;-51
2024/02/02 06:51:37;;;;;;;98.93;59.90;;;;;;;;;;5073644;28;20112;-51
2024/02/02 06:54:03;;;;;;;95.03;55.75;;;;;;;;;;5073082;28;20021;-55
2024/02/02 06:56:29;;;;;;;99.68;58.17;;;;;;;;;;5073293;28;20497;-51
2024/02/02 06:58:56;;;;;;;94.22;54.72;;;;;;;;;;5072640;28;20103;-52
2024/02/02 07:01:23;;;;;;;90.68;54.88;;;;;;;;;;5055624;28;20071;-48
2024/02/02 07:03:49;;;;;;;105.70;56.97;;;;;;;;;;5072918;28;20043;-48
2024/02/02 07:06:16;;;;;;;93.45;53.72;;;;;;;;;;5055322;28;20086;-48
2024/02/02 07:08:42;;;;;;;99.67;57.70;;;;;;;;;;5072674;28;20399;-53
2024/02/02 07:11:08;;;;;;;102.35;55.28;;;;;;;;;;5073247;28;20024;-49
2024/02/02 07:13:41;;;;;;;98.55;56.83;;;;;;;;;;5054373;28;20115;-49
2024/02/02 07:16:16;;;;;;;93.78;55.25;;;;;;;;;;5072968;28;20034;-54
2024/02/02 07:18:42;;;;;;;92.80;56.50;;;;;;;;;;5072811;28;20028;-58
2024/02/02 07:21:12;;;;;;;100.90;58.17;;;;;;;;;;5073041;28;20082;-52
2024/02/02 07:23:39;;;;;;;92.40;55.65;;;;;;;;;;5072512;28;20032;-49
2024/02/02 07:26:06;;;;;;;94.18;54.38;;;;;;;;;;5054701;28;20032;-49
2024/02/02 07:28:38;;;;;;;90.03;53.60;;;;;;;;;;5072175;28;20033;-51
2024/02/02 07:31:10;;;;;;;83.95;52.40;;;;;;;;;;5072779;28;20016;-52
2024/02/02 07:33:36;;;;;;;88.53;53.90;;;;;;;;;;5071643;28;20104;-52
2024/02/02 07:36:03;;;;;;;100.32;58.88;;;;;;;;;;5054579;28;20020;-57
2024/02/02 07:38:29;;;;;;;;;;;;;;;;;;5072608;28;20025;-49
2024/02/02 07:41:01;;;;;;;106.57;61.22;;;;;;;;;;5072437;28;19969;-50
2024/02/02 07:43:32;;;;;;;111.43;60.72;;;;;;;;;;5054005;28;20424;-50
2024/02/02 07:45:59;;;;;;;99.85;57.22;;;;;;;;;;5072337;28;20473;-52
2024/02/02 07:48:25;;;;;;;102.88;59.03;;;;;;;;;;5071792;28;20426;-49
2024/02/02 07:50:51;;;;;;;110.30;61.60;;;;;;;;;;5072378;28;20028;-53
2024/02/02 07:53:18;;;;;;;103.47;59.28;;;;;;;;;;5037403;28;20493;-51
2024/02/02 07:55:44;;;;;;;104.73;59.90;;;;;;;;;;5072205;28;20036;-49
2024/02/02 07:58:10;;;;;;;102.80;59.78;;;;;;;;;;5071789;28;20055;-49
2024/02/02 08:00:36;;;;;;;107.53;61.27;;;;;;;;;;5054368;28;20111;-52
2024/02/02 08:03:03;;;;;;;99.97;59.20;;;;;;;;;;5071678;28;20024;-51
2024/02/02 08:05:29;;;;;;;98.45;58.08;;;;;;;;;;5071883;28;20032;-52
2024/02/02 08:07:55;;;;;;;92.80;57.20;;;;;;;;;;5071681;28;20017;-52
2024/02/02 08:10:22;;;;;;;102.22;58.13;;;;;;;;;;5071966;28;20039;-50
2024/02/02 08:12:48;;;;;;;107.78;61.33;;;;;;;;;;5071493;28;20038;-49
2024/02/02 08:15:32;;;;;;;118.10;64.15;;;;;;;;;;5053959;28;20510;-53
2024/02/02 08:17:58;;;;;;;114.97;61.80;;;;;;;;;;5071956;28;20514;-48
2024/02/02 08:20:25;;;;;;;135.23;66.43;;;;;;;;;;5071968;28;20032;-51
2024/02/02 08:22:51;;;;;;;105.20;60.95;;;;;;;;;;5071977;28;20401;-49
2024/02/02 08:25:17;;;;;;;112.25;61.63;;;;;;;;;;5053896;28;20078;-50
2024/02/02 08:27:43;;;;;;;109.45;61.95;;;;;;;;;;5072146;28;20032;-50
2024/02/02 08:30:11;;;;;;;110.25;61.97;;;;;;;;;;5071751;28;20037;-50
2024/02/02 08:32:38;;;;;;;118.43;64.80;;;;;;;;;;5071680;28;20020;-53
2024/02/02 08:35:08;;;;;;;109.05;61.90;;;;;;;;;;5053891;28;20033;-49
2024/02/02 08:37:34;;;;;;;121.25;63.55;;;;;;;;;;5071763;28;20435;-54
2024/02/02 08:40:00;;;;;;;180.60;74.30;;;;;;;;;;5053275;28;20032;-50
2024/02/02 08:42:26;;;;;;;137.50;65.40;;;;;;;;;;5053222;28;20035;-50
2024/02/02 08:44:55;;;;;;;150.02;64.47;;;;;;;;;;5071538;28;20032;-50
2024/02/02 08:47:21;;;;;;;218.05;72.07;;;;;;;;;;5071528;28;20097;-50
2024/02/02 08:49:53;;;;;;;243.10;65.65;;;;;;;;;;5071599;28;20427;-49
2024/02/02 08:52:43;;;;;;;195.43;67.53;;;;;;;;;;5071490;28;20033;-49
2024/02/02 08:55:29;;;;;;;232.25;70.22;;;;;;;;;;5053319;28;20060;-50
2024/02/02 08:58:15;;;;;;;325.90;88.78;;;;;;;;;;5071681;28;20031;-49
2024/02/02 09:00:42;;;;;;;280.38;77.38;;;;;;;;;;5071354;28;20040;-49
2024/02/02 09:03:25;;;;;;;173.48;67.70;;;;;;;;;;5071379;28;20028;-51
2024/02/02 09:05:51;;;;;;;169.27;67.25;;;;;;;;;;5071231;28;20024;-51
2024/02/02 09:08:23;;;;;;;121.20;63.92;;;;;;;;;;5071404;28;20502;-50
2024/02/02 09:11:12;;;;;;;115.78;62.22;;;;;;;;;;5071417;28;20035;-51
2024/02/02 09:13:40;;;;;;;;;;;;;;;;;;5071972;28;20066;-53
2024/02/02 09:16:07;;;;;;;121.28;63.92;;;;;;;;;;5071137;28;19959;-55
2024/02/02 09:18:35;;;;;;;115.97;64.57;;;;;;;;;;5071468;28;20060;-51
2024/02/02 09:21:03;;;;;;;105.53;61.58;;;;;;;;;;5071253;28;20032;-50
2024/02/02 09:23:30;;;;;;;110.43;63.63;;;;;;;;;;5071134;28;20036;-53
2024/02/02 09:25:56;;;;;;;103.35;60.85;;;;;;;;;;5071003;28;20082;-51
2024/02/02 09:28:28;;;;;;;104.50;62.47;;;;;;;;;;5053029;28;20502;-52
2024/02/02 09:30:58;;;;;;;103.88;62.22;;;;;;;;;;5071061;28;20068;-52
2024/02/02 09:33:43;;;;;;;100.47;62.53;;;;;;;;;;5036463;28;20020;-49
2024/02/02 09:36:09;;;;;;;99.32;58.95;;;;;;;;;;5070936;28;20028;-50
2024/02/02 09:38:35;;;;;;;97.78;58.47;;;;;;;;;;5071140;28;20029;-49
2024/02/02 09:41:01;;;;;;;98.80;57.70;;;;;;;;;;5071061;28;20416;-49
2024/02/02 09:43:34;;;;;;;101.38;59.75;;;;;;;;;;5070874;28;20478;-49
2024/02/02 09:46:03;;;;;;;101.18;65.47;;;;;;;;;;5052808;28;20383;-50
2024/02/02 09:48:44;;;;;;;97.93;63.72;;;;;;;;;;5070927;28;20109;-49
2024/02/02 09:51:13;;;;;;;99.75;61.58;;;;;;;;;;5053001;28;20075;-49
2024/02/02 09:53:42;;;;;;;106.10;66.65;;;;;;;;;;5070768;28;20031;-50
2024/02/02 09:56:23;;;;;;;97.47;61.67;;;;;;;;;;5072470;28;20020;-49
2024/02/02 09:58:52;;;;;;;97.55;64.70;;;;;;;;;;5074529;28;20048;-53
2024/02/02 10:01:36;;;;;;;97.88;63.33;;;;;;;;;;5074488;28;20074;-50
2024/02/02 10:04:06;;;;;;;96.32;58.75;;;;;;;;;;5074372;28;20081;-50
2024/02/02 10:06:50;;;;;;;100.80;59.30;;;;;;;;;;5056353;28;20478;-49
2024/02/02 10:09:46;;;;;;;106.38;71.05;;;;;;;;;;5056313;28;20036;-50
2024/02/02 10:12:12;;;;;;;94.55;62.42;;;;;;;;;;4985486;28;20122;-49
2024/02/02 10:14:54;;;;;;;94.90;63.10;;;;;;;;;;5056340;28;20044;-49
2024/02/02 10:17:23;;;;;;;92.60;56.47;;;;;;;;;;5074030;28;20437;-49
2024/02/02 10:19:55;;;;;;;97.90;59.13;;;;;;;;;;5074154;28;20115;-53
2024/02/02 10:22:27;;;;;;;90.40;61.83;;;;;;;;;;5073985;28;20032;-53
2024/02/02 10:24:56;;;;;;;96.97;60.33;;;;;;;;;;5074041;28;20029;-53
2024/02/02 10:27:44;;;;;;;97.30;60.53;;;;;;;;;;5073752;28;20029;-50
2024/02/02 10:30:34;;;;;;;98.65;65.68;;;;;;;;;;5056181;28;20035;-49
2024/02/02 10:33:15;;;;;;;89.97;59.17;;;;;;;;;;5043308;28;20040;-49
2024/02/02 10:36:00;;;;;;;91.15;61.13;;;;;;;;;;5073573;28;20036;-54
2024/02/02 10:38:29;;;;;;;92.30;61.25;;;;;;;;;;5074216;28;20501;-51
2024/02/02 10:40:55;;;;;;;98.13;63.95;;;;;;;;;;5073800;28;20017;-49
2024/02/02 10:43:29;;;;;;;93.80;59.70;;;;;;;;;;5073550;28;20024;-54
2024/02/02 10:46:14;;;;;;;94.43;58.92;;;;;;;;;;5073456;28;20020;-49
2024/02/02 10:48:46;;;;;;;93.18;60.22;;;;;;;;;;5073538;28;20531;-51
2024/02/02 10:51:13;;;;;;;92.13;60.65;;;;;;;;;;5073545;28;20051;-49
2024/02/02 10:53:59;;;;;;;95.70;64.70;;;;;;;;;;5073498;28;20029;-49
2024/02/02 10:56:33;;;;;;;87.50;59.15;;;;;;;;;;5073272;28;20032;-51
2024/02/02 10:59:06;;;;;;;94.82;64.03;;;;;;;;;;5073487;28;20048;-49
2024/02/02 11:01:35;;;;;;;99.20;63.42;;;;;;;;;;5055537;28;20031;-54
2024/02/02 11:04:06;;;;;;;93.40;63.08;;;;;;;;;;5073274;28;20031;-50
2024/02/02 11:06:43;;;;;;;96.35;61.55;;;;;;;;;;5072624;28;20033;-50
2024/02/02 11:09:29;;;;;;;86.00;60.22;;;;;;;;;;5072996;28;20043;-50
2024/02/02 11:12:06;;;;;;;99.22;63.53;;;;;;;;;;5038775;28;20033;-50
2024/02/02 11:14:36;;;;;;;103.63;64.45;;;;;;;;;;5078497;22;20067;-53
2024/02/02 11:17:02;;;;;;;98.18;65.65;;;;;;;;;;5067496;28;20477;-52
2024/02/02 11:19:43;;;;;;;103.10;65.65;;;;;;;;;;5061424;28;20456;-51
2024/02/02 11:22:18;;;;;;;101.22;68.82;;;;;;;;;;5054311;28;20032;-50
2024/02/02 11:25:03;;;;;;;101.82;67.47;;;;;;;;;;5041607;28;20072;-51
2024/02/02 11:27:45;;;;;;;97.57;64.72;;;;;;;;;;5025622;28;20352;-54
2024/02/02 11:30:26;;;;;;;101.63;66.40;;;;;;;;;;5048260;28;20140;-51
2024/02/02 11:33:07;;;;;;;105.97;70.50;;;;;;;;;;5038865;28;20394;-51
2024/02/02 11:35:40;;;;;;;105.03;71.85;;;;;;;;;;5045095;28;20029;-51
2024/02/02 11:38:29;;;;;;;100.97;66.35;;;;;;;;;;5043196;28;20025;-52
2024/02/02 11:40:56;;;;;;;102.75;70.68;;;;;;;;;;5020406;28;20407;-56
2024/02/02 11:43:23;;;;;;;108.22;69.22;;;;;;;;;;5048653;28;20064;-53
2024/02/02 11:45:51;;;;;;;105.20;67.03;;;;;;;;;;5049766;28;20021;-55
2024/02/02 11:48:31;;;;;;;95.95;64.25;;;;;;;;;;5050628;28;20606;-53
2024/02/02 11:50:57;;;;;;;92.43;62.45;;;;;;;;;;5041164;28;20369;-55
2024/02/02 11:53:39;;;;;;;100.20;63.93;;;;;;;;;;5030488;28;20032;-52
2024/02/02 11:56:11;;;;;;;99.93;64.25;;;;;;;;;;5036880;28;20036;-55
2024/02/02 11:58:40;;;;;;;87.95;59.25;;;;;;;;;;5049031;28;20029;-55
2024/02/02 12:01:13;;;;;;;88.03;59.63;;;;;;;;;;5047364;28;20063;-52
2024/02/02 12:03:39;;;;;;;79.80;53.38;;;;;;;;;;5049623;28;20025;-55
2024/02/02 12:06:26;;;;;;;84.30;54.70;;;;;;;;;;5047216;28;20033;-58
2024/02/02 12:08:52;;;;;;;84.38;55.08;;;;;;;;;;5043612;28;20100;-54
2024/02/02 12:11:19;;;;;;;87.40;56.97;;;;;;;;;;5030481;28;20091;-51
2024/02/02 12:13:46;;;;;;;87.15;56.42;;;;;;;;;;5012543;28;20034;-50
2024/02/02 12:16:13;;;;;;;87.75;55.22;;;;;;;;;;5029779;28;20507;-53
2024/02/02 12:18:39;;;;;;;88.10;54.08;;;;;;;;;;5029751;28;20426;-50
2024/02/02 12:21:13;;;;;;;91.85;49.63;;;;;;;;;;5025690;28;20034;-54
2024/02/02 12:23:39;;;;;;;76.53;52.03;;;;;;;;;;5028507;28;20100;-51
2024/02/02 12:26:06;;;;;;;81.13;54.10;;;;;;;;;;5028504;28;20021;-51
2024/02/02 12:28:33;;;;;;;81.25;52.28;;;;;;;;;;5026889;28;20442;-50
2024/02/02 12:30:59;;;;;;;88.00;51.40;;;;;;;;;;5017621;28;20453;-51
2024/02/02 12:33:25;;;;;;;73.75;49.95;;;;;;;;;;5020943;28;20129;-50
2024/02/02 12:35:51;;;;;;;77.93;50.00;;;;;;;;;;5015344;28;20092;-49
2024/02/02 12:38:24;;;;;;;72.40;48.67;;;;;;;;;;5012846;28;20061;-54
2024/02/02 12:40:50;;;;;;;71.80;51.30;;;;;;;;;;5020509;28;20026;-55
2024/02/02 12:43:26;;;;;;;73.18;47.70;;;;;;;;;;5026770;28;20033;-53
2024/02/02 12:45:53;;;;;;;71.72;47.65;;;;;;;;;;5020301;28;20138;-56
2024/02/02 12:48:20;;;;;;;71.70;44.95;;;;;;;;;;5010262;28;20036;-52
2024/02/02 12:50:49;;;;;;;64.50;46.38;;;;;;;;;;5018281;28;20392;-55
2024/02/02 12:53:16;;;;;;;64.65;46.80;;;;;;;;;;5030131;28;20387;-50
2024/02/02 12:55:42;;;;;;;;;;;;;;;;;;5029425;28;20017;-57
2024/02/02 12:58:08;;;;;;;61.33;42.63;;;;;;;;;;5017825;28;19917;-53
2024/02/02 13:00:35;;;;;;;67.80;44.87;;;;;;;;;;5003641;28;20414;-52
2024/02/02 13:03:04;;;;;;;64.50;42.43;;;;;;;;;;5009154;28;20768;-50
2024/02/02 13:05:32;;;;;;;65.25;42.30;;;;;;;;;;5022397;28;20694;-52
2024/02/02 13:07:58;;;;;;;;;;;;;;;;;;5012153;28;20442;-55
2024/02/02 13:10:37;;;;;;;61.17;42.13;;;;;;;;;;5010233;28;19918;-51
2024/02/02 13:13:10;;;;;;;63.80;40.65;;;;;;;;;;5015842;28;20037;-52
2024/02/02 13:15:37;;;;;;;60.22;42.42;;;;;;;;;;5031336;28;20108;-55
2024/02/02 13:18:05;;;;;;;59.03;41.10;;;;;;;;;;5030287;28;20025;-52
2024/02/02 13:20:35;;;;;;;57.45;39.92;;;;;;;;;;5022301;28;20044;-52
2024/02/02 13:23:10;;;;;;;64.72;41.78;;;;;;;;;;5049753;28;20048;-54
2024/02/02 13:25:42;;;;;;;58.53;41.50;;;;;;;;;;5032811;28;20037;-51
2024/02/02 13:28:21;;;;;;;63.20;42.88;;;;;;;;;;5049582;28;20040;-51
2024/02/02 13:30:58;;;;;;;55.17;41.20;;;;;;;;;;5032699;28;20037;-52
2024/02/02 13:33:28;;;;;;;59.20;41.65;;;;;;;;;;5051773;28;20032;-51
2024/02/02 13:35:54;;;;;;;56.20;40.03;;;;;;;;;;5035905;28;20102;-51
2024/02/02 13:38:21;;;;;;;54.28;40.45;;;;;;;;;;5052099;28;20040;-52
2024/02/02 13:40:53;;;;;;;55.15;39.88;;;;;;;;;;5040090;28;20064;-53
2024/02/02 13:43:20;;;;;;;59.80;42.38;;;;;;;;;;5053241;28;20059;-52
2024/02/02 13:45:47;;;;;;;54.30;39.78;;;;;;;;;;5051899;28;20055;-55
2024/02/02 13:48:14;;;;;;;52.00;39.10;;;;;;;;;;5050145;28;20025;-53
2024/02/02 13:50:59;;;;;;;50.92;38.55;;;;;;;;;;5040341;28;20480;-51
2024/02/02 13:53:29;;;;;;;54.53;39.00;;;;;;;;;;5050246;28;20021;-51
2024/02/02 13:55:55;;;;;;;48.53;37.92;;;;;;;;;;5050654;28;20025;-56
2024/02/02 13:58:22;;;;;;;48.97;36.42;;;;;;;;;;5052615;28;20037;-58
2024/02/02 14:00:48;;;;;;;51.10;37.55;;;;;;;;;;5035405;28;20179;-53
2024/02/02 14:03:17;;;;;;;46.65;35.60;;;;;;;;;;5053662;28;20441;-54
2024/02/02 14:05:44;;;;;;;45.58;34.63;;;;;;;;;;5039101;28;20646;-55
2024/02/02 14:08:11;;;;;;;50.85;36.78;;;;;;;;;;5053292;28;20037;-51
2024/02/02 14:10:42;;;;;;;53.50;37.10;;;;;;;;;;5018848;28;20029;-53
2024/02/02 14:13:12;;;;;;;55.47;38.63;;;;;;;;;;5052077;28;20025;-50
2024/02/02 14:15:39;;;;;;;56.63;37.50;;;;;;;;;;5052820;28;20021;-54
2024/02/02 14:18:06;;;;;;;52.10;38.60;;;;;;;;;;5043891;28;20021;-51
2024/02/02 14:20:34;;;;;;;53.03;38.60;;;;;;;;;;5052917;28;20048;-53